createdAt,value
2022-09-27T00:01:35.692Z,8.58
2022-09-27T00:04:08.889Z,8.33
2022-09-27T00:06:41.772Z,8.00
2022-09-27T00:09:15.090Z,10.72
2022-09-27T00:11:48.520Z,8.65
2022-09-27T00:14:20.994Z,8.23
2022-09-27T00:16:53.645Z,8.95
2022-09-27T00:19:27.781Z,8.28
2022-09-27T00:22:01.599Z,8.63
2022-09-27T00:24:34.434Z,9.03
2022-09-27T00:27:06.924Z,8.63
2022-09-27T00:29:39.569Z,8.18
2022-09-27T00:32:12.075Z,8.55
2022-09-27T00:34:44.500Z,8.93
2022-09-27T00:37:17.494Z,8.60
2022-09-27T00:39:50.648Z,8.95
2022-09-27T00:42:23.382Z,8.83
2022-09-27T00:45:13.836Z,8.45
2022-09-27T00:47:55.378Z,8.60
2022-09-27T00:50:35.737Z,8.05
2022-09-27T00:53:17.124Z,8.60
2022-09-27T00:55:56.813Z,9.18
2022-09-27T00:58:34.037Z,10.13
2022-09-27T01:01:10.725Z,11.53
2022-09-27T01:04:06.475Z,8.38
2022-09-27T01:06:39.053Z,9.58
2022-09-27T01:09:12.218Z,9.40
2022-09-27T01:11:51.801Z,9.13
2022-09-27T01:14:38.386Z,9.83
2022-09-27T01:17:55.996Z,9.33
2022-09-27T01:21:05.053Z,8.58
2022-09-27T01:24:05.228Z,9.20
2022-09-27T01:27:22.141Z,11.10
2022-09-27T01:30:17.482Z,10.25
2022-09-27T01:33:24.465Z,10.65
2022-09-27T01:36:28.340Z,9.23
2022-09-27T01:39:29.790Z,9.50
2022-09-27T01:45:01.401Z,10.15
2022-09-27T01:47:39.669Z,11.00
2022-09-27T01:50:36.527Z,9.98
2022-09-27T01:53:28.305Z,9.43
2022-09-27T01:56:07.780Z,10.75
2022-09-27T01:59:01.642Z,10.38
2022-09-27T02:01:36.054Z,11.35
2022-09-27T02:04:12.979Z,10.88
2022-09-27T02:06:49.485Z,12.33
2022-09-27T02:09:41.304Z,10.35
2022-09-27T02:12:27.213Z,13.90
2022-09-27T02:15:33.225Z,11.00
2022-09-27T02:18:15.876Z,12.05
2022-09-27T02:20:53.637Z,12.28
2022-09-27T02:23:51.619Z,12.23
2022-09-27T02:26:38.020Z,14.63
2022-09-27T02:29:21.134Z,14.90
2022-09-27T02:31:56.419Z,13.35
2022-09-27T02:34:30.769Z,12.93
2022-09-27T02:37:03.830Z,13.22
2022-09-27T02:39:37.014Z,14.40
2022-09-27T02:42:11.121Z,13.45
2022-09-27T02:44:43.817Z,13.60
2022-09-27T02:47:47.507Z,13.72
2022-09-27T02:50:34.520Z,18.73
2022-09-27T02:53:41.590Z,14.35
2022-09-27T02:57:02.117Z,17.35
2022-09-27T03:00:12.041Z,17.87
2022-09-27T03:03:24.471Z,14.78
2022-09-27T03:06:06.391Z,14.30
2022-09-27T03:08:39.729Z,13.80
2022-09-27T03:11:13.628Z,18.23
2022-09-27T03:14:07.358Z,16.27
2022-09-27T03:16:21.614Z,17.32
2022-09-27T03:18:55.827Z,18.82
2022-09-27T03:21:46.589Z,19.07
2022-09-27T03:24:19.375Z,16.60
2022-09-27T03:26:52.657Z,16.57
2022-09-27T03:29:25.710Z,21.02
2022-09-27T03:32:01.138Z,17.98
2022-09-27T03:34:54.160Z,18.50
2022-09-27T03:40:00.157Z,18.00
2022-09-27T03:42:32.999Z,20.37
2022-09-27T03:45:06.968Z,19.95
2022-09-27T03:47:44.116Z,21.42
2022-09-27T03:50:17.845Z,27.32
2022-09-27T03:52:50.394Z,25.07
2022-09-27T03:55:23.148Z,19.45
2022-09-27T03:57:56.047Z,18.52
2022-09-27T04:00:31.254Z,19.27
2022-09-27T04:03:06.466Z,20.55
2022-09-27T04:05:51.001Z,22.95
2022-09-27T04:08:25.354Z,25.20
2022-09-27T04:10:58.738Z,17.57
2022-09-27T04:16:05.530Z,23.90
2022-09-27T04:18:48.605Z,20.55
2022-09-27T04:21:40.383Z,23.47
2022-09-27T04:24:14.927Z,23.10
2022-09-27T04:26:49.400Z,25.37
2022-09-27T04:29:24.287Z,18.80
2022-09-27T04:31:58.324Z,18.87
2022-09-27T04:34:56.264Z,22.42
2022-09-27T04:37:30.103Z,24.10
2022-09-27T04:40:08.648Z,18.37
2022-09-27T04:42:41.675Z,24.27
2022-09-27T04:45:15.602Z,17.55
2022-09-27T04:47:52.677Z,22.67
2022-09-27T04:50:25.254Z,21.70
2022-09-27T04:53:00.572Z,21.60
2022-09-27T04:55:33.406Z,24.20
2022-09-27T04:58:06.477Z,18.85
2022-09-27T05:00:39.180Z,25.40
2022-09-27T05:03:14.173Z,20.05
2022-09-27T05:05:48.404Z,24.47
2022-09-27T05:08:21.885Z,20.50
2022-09-27T05:11:05.705Z,21.50
2022-09-27T05:13:38.575Z,24.63
2022-09-27T05:16:11.458Z,24.20
2022-09-27T05:18:57.949Z,21.37
2022-09-27T05:21:49.066Z,27.27
2022-09-27T05:24:22.357Z,23.25
2022-09-27T05:26:55.927Z,22.58
2022-09-27T05:29:28.781Z,24.90
2022-09-27T05:32:03.839Z,23.00
2022-09-27T05:34:36.357Z,24.80
2022-09-27T05:37:10.577Z,29.02
2022-09-27T05:39:44.052Z,21.87
2022-09-27T05:42:20.348Z,25.80
2022-09-27T05:44:53.517Z,27.15
2022-09-27T05:47:25.931Z,26.15
2022-09-27T05:49:59.076Z,23.60
2022-09-27T05:52:32.254Z,27.20
2022-09-27T05:55:05.575Z,27.02
2022-09-27T05:57:38.479Z,25.45
2022-09-27T06:00:13.218Z,20.05
2022-09-27T06:02:49.132Z,26.48
2022-09-27T06:05:40.688Z,21.37
2022-09-27T06:08:28.340Z,21.85
2022-09-27T06:11:06.213Z,29.63
2022-09-27T06:13:39.455Z,27.52
2022-09-27T06:16:13.059Z,27.70
2022-09-27T06:18:47.682Z,28.12
2022-09-27T06:21:21.420Z,22.13
2022-09-27T06:24:01.357Z,25.65
2022-09-27T06:26:38.386Z,24.60
2022-09-27T06:29:22.502Z,26.27
2022-09-27T06:32:01.258Z,25.90
2022-09-27T06:34:36.803Z,28.77
2022-09-27T06:37:09.790Z,36.80
2022-09-27T06:39:42.771Z,24.57
2022-09-27T06:42:23.344Z,32.17
2022-09-27T06:45:06.717Z,32.75
2022-09-27T06:47:57.330Z,35.17
2022-09-27T06:50:33.901Z,37.63
2022-09-27T06:55:40.153Z,45.05
2022-09-27T06:58:32.680Z,36.58
2022-09-27T07:01:23.928Z,39.92
2022-09-27T07:04:16.299Z,36.75
2022-09-27T07:07:01.634Z,37.38
2022-09-27T07:09:37.514Z,37.28
2022-09-27T07:12:12.609Z,35.35
2022-09-27T07:14:46.074Z,32.60
2022-09-27T07:17:23.288Z,37.93
2022-09-27T07:22:31.149Z,36.98
2022-09-27T07:25:05.687Z,33.00
2022-09-27T07:27:42.303Z,44.85
2022-09-27T07:30:15.418Z,44.18
2022-09-27T07:32:48.457Z,36.55
2022-09-27T07:35:21.826Z,45.40
2022-09-27T07:37:54.277Z,37.63
2022-09-27T07:40:27.867Z,43.75
2022-09-27T07:43:00.842Z,43.78
2022-09-27T07:45:34.377Z,53.37
2022-09-27T07:48:24.352Z,53.70
2022-09-27T07:51:06.683Z,49.95
2022-09-27T07:53:54.402Z,48.78
2022-09-27T07:56:32.103Z,47.15
2022-09-27T07:59:05.274Z,53.13
2022-09-27T08:01:39.830Z,46.00
2022-09-27T08:04:13.325Z,51.23
2022-09-27T08:06:46.873Z,52.58
2022-09-27T08:09:19.792Z,51.23
2022-09-27T08:11:54.313Z,53.70
2022-09-27T08:14:28.064Z,50.23
2022-09-27T08:17:00.873Z,48.10
2022-09-27T08:19:34.197Z,54.18
2022-09-27T08:22:24.798Z,59.65
2022-09-27T08:24:59.955Z,50.88
2022-09-27T08:27:43.307Z,48.55
2022-09-27T08:30:20.526Z,46.13
2022-09-27T08:32:59.216Z,47.98
2022-09-27T08:35:34.298Z,49.18
2022-09-27T08:38:07.520Z,54.23
2022-09-27T08:41:03.662Z,57.53
2022-09-27T08:44:11.081Z,47.17
2022-09-27T08:47:11.589Z,53.90
2022-09-27T08:49:51.540Z,46.65
2022-09-27T08:52:34.771Z,46.30
2022-09-27T08:55:24.234Z,46.15
2022-09-27T08:57:59.709Z,49.08
2022-09-27T09:00:33.613Z,53.78
2022-09-27T09:03:07.598Z,51.53
2022-09-27T09:05:41.809Z,51.23
2022-09-27T09:08:42.407Z,50.70
2022-09-27T09:11:46.624Z,50.78
2022-09-27T09:15:09.423Z,49.75
2022-09-27T09:18:00.714Z,54.00
2022-09-27T09:21:01.511Z,47.90
2022-09-27T09:24:16.329Z,47.60
2022-09-27T09:27:01.148Z,44.93
2022-09-27T09:29:58.101Z,47.88
2022-09-27T09:32:47.804Z,47.73
2022-09-27T09:35:34.188Z,56.77
2022-09-27T09:38:24.707Z,48.95
2022-09-27T09:41:13.437Z,51.20
2022-09-27T09:43:53.741Z,54.53
2022-09-27T09:46:31.321Z,52.55
2022-09-27T09:49:31.754Z,54.65
2022-09-27T09:52:09.314Z,51.33
2022-09-27T09:54:55.653Z,55.55
2022-09-27T09:57:41.519Z,54.30
2022-09-27T10:00:18.248Z,55.50
2022-09-27T10:02:52.668Z,49.63
2022-09-27T10:05:28.329Z,54.60
2022-09-27T10:08:06.080Z,54.55
2022-09-27T10:10:39.442Z,51.77
2022-09-27T10:13:31.533Z,55.58
2022-09-27T10:16:09.180Z,60.38
2022-09-27T10:18:47.629Z,51.33
2022-09-27T10:21:33.144Z,55.65
2022-09-27T10:24:28.890Z,52.30
2022-09-27T10:27:04.322Z,52.48
2022-09-27T10:29:40.466Z,51.40
2022-09-27T10:32:37.357Z,49.95
2022-09-27T10:35:35.418Z,55.03
2022-09-27T10:38:30.036Z,47.85
2022-09-27T10:41:26.300Z,47.75
2022-09-27T10:44:19.095Z,50.10
2022-09-27T10:47:02.507Z,47.75
2022-09-27T10:49:45.218Z,52.00
2022-09-27T10:52:22.409Z,48.55
2022-09-27T10:54:59.851Z,49.27
2022-09-27T10:57:33.114Z,48.28
2022-09-27T11:00:09.917Z,48.90
2022-09-27T11:02:42.725Z,45.88
2022-09-27T11:05:31.265Z,45.43
2022-09-27T11:08:24.796Z,49.05
2022-09-27T11:11:20.064Z,47.62
2022-09-27T11:14:06.049Z,52.30
2022-09-27T11:16:53.580Z,42.33
2022-09-27T11:20:00.612Z,46.75
2022-09-27T11:22:47.336Z,43.45
2022-09-27T11:25:48.513Z,45.95
2022-09-27T11:28:43.817Z,45.75
2022-09-27T11:31:50.119Z,42.73
2022-09-27T11:34:59.120Z,44.40
2022-09-27T11:37:50.044Z,39.88
2022-09-27T11:40:36.759Z,36.58
2022-09-27T11:43:38.791Z,37.67
2022-09-27T11:46:34.195Z,32.17
2022-09-27T11:49:22.356Z,28.62
2022-09-27T11:52:20.865Z,32.65
2022-09-27T11:55:25.539Z,31.97
2022-09-27T11:58:20.121Z,29.63
2022-09-27T12:01:24.095Z,30.50
2022-09-27T12:04:17.923Z,32.67
2022-09-27T12:07:19.084Z,31.90
2022-09-27T12:09:58.694Z,29.67
2022-09-27T12:12:53.611Z,27.22
2022-09-27T12:15:33.555Z,30.37
2022-09-27T12:18:30.468Z,30.95
2022-09-27T12:21:06.250Z,31.85
2022-09-27T12:23:53.317Z,31.23
2022-09-27T12:26:44.303Z,29.85
2022-09-27T12:29:36.435Z,29.95
2022-09-27T12:32:19.879Z,30.85
2022-09-27T12:35:15.514Z,28.17
2022-09-27T12:38:13.205Z,29.82
2022-09-27T12:40:56.309Z,29.80
2022-09-27T12:43:33.704Z,29.48
2022-09-27T12:46:30.711Z,31.90
2022-09-27T12:49:17.724Z,30.12
2022-09-27T12:52:09.981Z,31.20
2022-09-27T12:55:30.465Z,31.77
2022-09-27T12:58:41.222Z,40.63
2022-09-27T13:01:22.028Z,35.55
2022-09-27T13:04:27.597Z,34.85
2022-09-27T13:07:18.659Z,32.98
2022-09-27T13:10:18.053Z,28.47
2022-09-27T13:12:54.692Z,26.82
2022-09-27T13:15:46.211Z,23.07
2022-09-27T13:18:59.836Z,27.98
2022-09-27T13:21:52.682Z,26.17
2022-09-27T13:24:47.340Z,32.25
2022-09-27T13:27:34.494Z,26.30
2022-09-27T13:30:20.010Z,33.00
2022-09-27T13:33:17.239Z,34.48
2022-09-27T13:36:31.922Z,39.30
2022-09-27T13:39:20.067Z,41.58
2022-09-27T13:41:59.234Z,42.23
2022-09-27T13:44:55.095Z,44.80
2022-09-27T13:47:48.838Z,48.30
2022-09-27T13:50:43.394Z,42.03
2022-09-27T13:53:37.256Z,45.03
2022-09-27T13:56:30.933Z,73.17
2022-09-27T13:59:51.744Z,109.45
2022-09-27T14:02:32.869Z,56.75
2022-09-27T14:05:08.186Z,59.25
2022-09-27T14:07:43.401Z,52.93
2022-09-27T14:10:22.201Z,55.38
2022-09-27T14:12:54.723Z,51.45
2022-09-27T14:15:51.689Z,53.08
2022-09-27T14:18:24.886Z,47.17
2022-09-27T14:21:09.650Z,53.33
2022-09-27T14:23:44.148Z,50.88
2022-09-27T14:26:26.610Z,50.98
2022-09-27T14:28:59.355Z,52.95
2022-09-27T14:31:35.011Z,48.98
2022-09-27T14:34:09.837Z,51.77
2022-09-27T14:37:03.735Z,63.85
2022-09-27T14:39:39.383Z,50.03
2022-09-27T14:42:22.457Z,51.88
2022-09-27T14:44:57.592Z,51.92
2022-09-27T14:47:30.626Z,49.08
2022-09-27T14:50:07.264Z,52.43
2022-09-27T14:52:41.203Z,55.58
2022-09-27T14:55:20.985Z,54.27
2022-09-27T14:58:00.599Z,52.20
2022-09-27T15:00:36.678Z,55.50
2022-09-27T15:03:11.781Z,47.58
2022-09-27T15:05:45.106Z,55.45
2022-09-27T15:08:28.133Z,60.17
2022-09-27T15:11:08.668Z,56.98
2022-09-27T15:13:44.664Z,56.10
2022-09-27T15:16:20.311Z,56.75
2022-09-27T15:19:25.023Z,55.35
2022-09-27T15:22:00.254Z,50.75
2022-09-27T15:24:46.952Z,51.70
2022-09-27T15:27:25.209Z,60.60
2022-09-27T15:29:58.849Z,59.20
2022-09-27T15:32:31.543Z,54.63
2022-09-27T15:35:10.543Z,51.30
2022-09-27T15:37:43.926Z,49.63
2022-09-27T15:40:42.202Z,55.28
2022-09-27T15:43:50.193Z,58.25
2022-09-27T15:46:40.311Z,59.42
2022-09-27T15:49:40.221Z,58.23
2022-09-27T15:52:13.952Z,52.13
2022-09-27T15:54:46.788Z,53.17
2022-09-27T15:57:19.355Z,49.55
2022-09-27T15:59:52.849Z,44.60
2022-09-27T16:02:25.944Z,45.20
2022-09-27T16:04:58.502Z,44.00
2022-09-27T16:07:30.921Z,39.90
2022-09-27T16:10:04.487Z,39.25
2022-09-27T16:12:38.285Z,45.73
2022-09-27T16:15:11.966Z,44.40
2022-09-27T16:17:45.059Z,44.18
2022-09-27T16:20:23.374Z,43.85
2022-09-27T16:22:56.561Z,39.20
2022-09-27T16:25:29.041Z,42.88
2022-09-27T16:28:02.555Z,40.38
2022-09-27T16:30:36.178Z,43.30
2022-09-27T16:33:09.012Z,39.45
2022-09-27T16:35:41.806Z,40.63
2022-09-27T16:38:14.444Z,44.27
2022-09-27T16:40:46.866Z,45.58
2022-09-27T16:43:20.596Z,46.33
2022-09-27T16:45:53.324Z,46.77
2022-09-27T16:48:26.409Z,48.92
2022-09-27T16:51:21.267Z,48.73
2022-09-27T16:53:54.700Z,42.95
2022-09-27T16:56:28.951Z,44.05
2022-09-27T16:59:03.513Z,50.58
2022-09-27T17:01:37.444Z,49.70
2022-09-27T17:04:10.231Z,59.80
2022-09-27T17:06:43.188Z,44.53
2022-09-27T17:09:16.710Z,44.00
2022-09-27T17:11:49.587Z,41.92
2022-09-27T17:14:22.735Z,39.55
2022-09-27T17:16:55.358Z,41.65
2022-09-27T17:19:28.672Z,51.10
2022-09-27T17:22:03.447Z,40.23
2022-09-27T17:24:57.548Z,38.30
2022-09-27T17:27:30.208Z,36.00
2022-09-27T17:30:03.090Z,38.95
2022-09-27T17:32:39.898Z,57.75
2022-09-27T17:35:12.391Z,45.70
2022-09-27T17:37:46.548Z,41.88
2022-09-27T17:40:20.586Z,40.92
2022-09-27T17:42:53.082Z,38.35
2022-09-27T17:45:25.805Z,38.30
2022-09-27T17:48:16.587Z,40.70
2022-09-27T17:50:49.717Z,38.05
2022-09-27T17:53:24.696Z,37.93
2022-09-27T17:56:02.866Z,35.15
2022-09-27T17:58:36.334Z,42.33
2022-09-27T18:01:09.500Z,34.88
2022-09-27T18:03:42.234Z,42.38
2022-09-27T18:06:19.730Z,39.03
2022-09-27T18:08:55.048Z,40.67
2022-09-27T18:11:31.238Z,41.00
2022-09-27T18:14:04.963Z,42.83
2022-09-27T18:16:42.035Z,44.23
2022-09-27T18:19:17.245Z,43.02
2022-09-27T18:21:50.690Z,54.67
2022-09-27T18:24:23.694Z,42.73
2022-09-27T18:26:57.376Z,42.88
2022-09-27T18:29:30.330Z,38.53
2022-09-27T18:32:03.500Z,43.23
2022-09-27T18:34:36.921Z,38.50
2022-09-27T18:37:09.547Z,31.25
2022-09-27T18:39:42.117Z,37.75
2022-09-27T18:42:15.227Z,39.65
2022-09-27T18:44:47.884Z,37.05
2022-09-27T18:47:23.832Z,31.10
2022-09-27T18:49:58.367Z,35.63
2022-09-27T18:52:31.137Z,30.45
2022-09-27T18:55:04.368Z,32.73
2022-09-27T18:57:37.815Z,31.45
2022-09-27T19:00:12.178Z,32.10
2022-09-27T19:02:44.963Z,30.48
2022-09-27T19:05:18.615Z,30.43
2022-09-27T19:07:52.623Z,27.40
2022-09-27T19:10:27.867Z,30.97
2022-09-27T19:13:01.468Z,30.53
2022-09-27T19:15:35.250Z,33.90
2022-09-27T19:18:09.482Z,28.57
2022-09-27T19:20:42.474Z,30.85
2022-09-27T19:23:15.789Z,29.72
2022-09-27T19:25:48.252Z,35.68
2022-09-27T19:28:21.417Z,40.05
2022-09-27T19:30:54.084Z,33.35
2022-09-27T19:33:27.751Z,36.28
2022-09-27T19:36:24.562Z,35.28
2022-09-27T19:38:59.553Z,35.00
2022-09-27T19:41:32.119Z,30.27
2022-09-27T19:44:04.648Z,33.70
2022-09-27T19:46:38.122Z,33.28
2022-09-27T19:49:10.732Z,28.70
2022-09-27T19:51:43.991Z,29.98
2022-09-27T19:54:17.307Z,30.30
2022-09-27T19:56:50.909Z,30.68
2022-09-27T19:59:25.023Z,27.27
2022-09-27T20:01:57.509Z,30.52
2022-09-27T20:04:29.901Z,30.23
2022-09-27T20:07:02.628Z,33.20
2022-09-27T20:09:38.405Z,48.98
2022-09-27T20:12:12.212Z,35.70
2022-09-27T20:14:46.503Z,42.05
2022-09-27T20:17:19.150Z,38.53
2022-09-27T20:19:51.725Z,49.98
2022-09-27T20:22:24.643Z,68.25
2022-09-27T20:24:57.308Z,67.70
2022-09-27T20:27:30.309Z,42.30
2022-09-27T20:30:03.962Z,48.42
2022-09-27T20:32:37.381Z,69.75
2022-09-27T20:35:11.464Z,37.17
2022-09-27T20:37:45.425Z,51.48
2022-09-27T20:40:18.182Z,81.28
2022-09-27T20:42:50.819Z,42.75
2022-09-27T20:45:23.553Z,53.00
2022-09-27T20:47:56.097Z,41.20
2022-09-27T20:50:29.316Z,41.23
2022-09-27T20:53:02.316Z,42.98
2022-09-27T20:55:35.940Z,37.53
2022-09-27T20:58:08.686Z,35.20
2022-09-27T21:00:41.150Z,38.30
2022-09-27T21:03:16.268Z,34.30
2022-09-27T21:06:01.005Z,33.40
2022-09-27T21:08:55.317Z,35.15
2022-09-27T21:11:27.990Z,36.13
2022-09-27T21:14:00.948Z,34.88
2022-09-27T21:16:36.011Z,35.17
2022-09-27T21:19:10.278Z,38.05
2022-09-27T21:21:43.508Z,35.78
2022-09-27T21:24:16.461Z,36.98
2022-09-27T21:26:50.094Z,39.78
2022-09-27T21:29:23.983Z,36.20
2022-09-27T21:31:56.447Z,38.67
2022-09-27T21:34:30.717Z,41.73
2022-09-27T21:37:04.484Z,34.18
2022-09-27T21:39:37.350Z,35.90
2022-09-27T21:42:09.888Z,39.80
2022-09-27T21:44:45.803Z,37.58
2022-09-27T21:47:23.891Z,31.97
2022-09-27T21:49:57.389Z,36.13
2022-09-27T21:52:30.055Z,39.08
2022-09-27T21:55:04.652Z,33.10
2022-09-27T21:57:38.356Z,33.63
2022-09-27T22:00:12.716Z,34.13
2022-09-27T22:02:45.204Z,32.15
2022-09-27T22:05:20.656Z,34.78
2022-09-27T22:07:53.474Z,32.88
2022-09-27T22:10:27.482Z,35.03
2022-09-27T22:13:01.042Z,34.45
2022-09-27T22:15:37.516Z,29.35
2022-09-27T22:18:10.244Z,36.15
2022-09-27T22:20:44.308Z,32.33
2022-09-27T22:23:16.976Z,34.13
2022-09-27T22:25:49.452Z,34.50
2022-09-27T22:28:23.143Z,33.17
2022-09-27T22:30:55.882Z,33.78
2022-09-27T22:33:29.542Z,32.30
2022-09-27T22:36:02.117Z,31.23
2022-09-27T22:38:36.185Z,33.55
2022-09-27T22:41:08.972Z,32.80
2022-09-27T22:43:41.771Z,37.67
2022-09-27T22:46:14.642Z,37.23
2022-09-27T22:48:47.117Z,29.60
2022-09-27T22:51:19.871Z,33.88
2022-09-27T22:53:52.411Z,35.43
2022-09-27T22:56:24.931Z,35.65
2022-09-27T22:58:58.010Z,35.08
2022-09-27T23:01:31.724Z,33.55
2022-09-27T23:04:04.417Z,32.95
2022-09-27T23:06:39.092Z,30.65
2022-09-27T23:09:12.328Z,32.17
2022-09-27T23:11:45.134Z,32.25
2022-09-27T23:14:19.818Z,33.95
2022-09-27T23:16:53.062Z,32.70
2022-09-27T23:19:27.150Z,30.35
2022-09-27T23:22:01.406Z,49.98
2022-09-27T23:24:33.882Z,56.42
2022-09-27T23:27:24.061Z,42.95
2022-09-27T23:29:56.507Z,36.25
2022-09-27T23:32:31.837Z,40.60
2022-09-27T23:35:03.765Z,29.35
2022-09-27T23:37:36.835Z,35.70
2022-09-27T23:40:31.621Z,28.32
2022-09-27T23:43:04.780Z,33.50
2022-09-27T23:45:39.169Z,32.30
2022-09-27T23:48:13.131Z,35.68
2022-09-27T23:50:45.864Z,31.12
2022-09-27T23:53:18.412Z,34.63
2022-09-27T23:56:08.124Z,30.48
2022-09-27T23:58:46.205Z,32.67
